createdAt,value
2018-01-14T00:00:00.590Z,85.70
2018-01-14T00:02:28.202Z,86.70
2018-01-14T00:04:55.722Z,85.40
2018-01-14T00:07:24.780Z,85.50
2018-01-14T00:09:52.232Z,84.90
2018-01-14T00:12:19.697Z,84.60
2018-01-14T00:14:47.199Z,84.40
2018-01-14T00:17:14.678Z,84.30
2018-01-14T00:19:42.178Z,85.20
2018-01-14T00:22:09.731Z,84.90
2018-01-14T00:24:37.198Z,84.60
2018-01-14T00:27:04.694Z,85.80
2018-01-14T00:29:32.255Z,87.00
2018-01-14T00:31:59.869Z,86.10
2018-01-14T00:34:27.351Z,85.50
2018-01-14T00:36:54.849Z,86.60
2018-01-14T00:39:22.301Z,85.60
2018-01-14T00:41:50.647Z,86.40
2018-01-14T00:44:18.160Z,86.10
2018-01-14T00:46:46.404Z,85.60
2018-01-14T00:49:13.929Z,85.60
2018-01-14T00:51:41.465Z,86.10
2018-01-14T00:54:09.700Z,86.10
2018-01-14T00:56:37.201Z,86.10
2018-01-14T00:59:04.779Z,86.10
2018-01-14T01:01:33.085Z,85.60
2018-01-14T01:04:00.557Z,85.60
2018-01-14T01:06:28.069Z,86.00
2018-01-14T01:08:55.525Z,86.20
2018-01-14T01:11:22.997Z,86.10
2018-01-14T01:13:50.492Z,86.80
2018-01-14T01:16:17.997Z,86.50
2018-01-14T01:18:45.489Z,86.40
2018-01-14T01:21:13.220Z,87.00
2018-01-14T01:23:40.802Z,86.40
2018-01-14T01:26:08.342Z,85.70
2018-01-14T01:28:36.416Z,86.10
2018-01-14T01:31:03.902Z,85.80
2018-01-14T01:33:31.440Z,86.00
2018-01-14T01:35:58.909Z,85.40
2018-01-14T01:38:26.423Z,85.80
2018-01-14T01:40:54.776Z,87.00
2018-01-14T01:43:23.635Z,86.60
2018-01-14T01:45:51.142Z,86.80
2018-01-14T01:48:18.649Z,85.80
2018-01-14T01:50:46.291Z,86.00
2018-01-14T01:53:14.615Z,86.50
2018-01-14T01:55:42.148Z,86.50
2018-01-14T01:58:10.448Z,86.10
2018-01-14T02:00:37.957Z,86.10
2018-01-14T02:03:05.453Z,86.10
2018-01-14T02:05:33.748Z,85.80
2018-01-14T02:08:01.286Z,85.80
2018-01-14T02:10:29.575Z,86.70
2018-01-14T02:12:57.856Z,86.20
2018-01-14T02:15:26.187Z,84.90
2018-01-14T02:17:53.733Z,84.80
2018-01-14T02:20:21.219Z,83.40
2018-01-14T02:22:48.764Z,83.30
2018-01-14T02:25:16.256Z,84.60
2018-01-14T02:27:43.784Z,84.60
2018-01-14T02:30:11.252Z,84.30
2018-01-14T02:32:38.818Z,84.20
2018-01-14T02:35:06.365Z,84.20
2018-01-14T02:37:34.031Z,83.90
2018-01-14T02:40:02.413Z,85.40
2018-01-14T02:42:30.716Z,86.00
2018-01-14T02:44:58.197Z,86.00
2018-01-14T02:47:25.798Z,85.30
2018-01-14T02:49:53.302Z,85.20
2018-01-14T02:52:20.800Z,85.10
2018-01-14T02:54:49.093Z,85.20
2018-01-14T02:57:16.561Z,85.00
2018-01-14T02:59:44.120Z,85.20
2018-01-14T03:02:11.689Z,84.70
2018-01-14T03:04:39.304Z,85.20
2018-01-14T03:07:06.833Z,84.70
2018-01-14T03:09:34.328Z,85.10
2018-01-14T03:12:01.806Z,85.00
2018-01-14T03:14:29.324Z,85.20
2018-01-14T03:16:56.867Z,85.50
2018-01-14T03:19:25.345Z,84.30
2018-01-14T03:21:53.642Z,84.40
2018-01-14T03:24:21.935Z,85.10
2018-01-14T03:26:49.462Z,85.00
2018-01-14T03:29:16.984Z,85.60
2018-01-14T03:31:44.471Z,85.00
2018-01-14T03:34:12.053Z,84.80
2018-01-14T03:36:39.560Z,85.00
2018-01-14T03:39:07.120Z,85.80
2018-01-14T03:41:34.588Z,85.60
2018-01-14T03:44:02.079Z,85.50
2018-01-14T03:46:29.608Z,85.00
2018-01-14T03:48:57.203Z,84.70
2018-01-14T03:51:24.693Z,85.40
2018-01-14T03:53:52.234Z,85.50
2018-01-14T03:56:19.711Z,86.20
2018-01-14T03:58:47.188Z,84.80
2018-01-14T04:01:14.692Z,83.80
2018-01-14T04:03:42.187Z,84.30
2018-01-14T04:06:09.831Z,84.70
2018-01-14T04:08:37.381Z,84.00
2018-01-14T04:11:05.644Z,85.90
2018-01-14T04:13:33.885Z,85.00
2018-01-14T04:16:01.372Z,84.90
2018-01-14T04:18:28.867Z,83.80
2018-01-14T04:20:56.341Z,83.60
2018-01-14T04:23:23.817Z,84.70
2018-01-14T04:25:51.517Z,85.10
2018-01-14T04:28:19.106Z,85.40
2018-01-14T04:30:47.400Z,84.80
2018-01-14T04:33:15.649Z,85.60
2018-01-14T04:35:43.155Z,84.90
2018-01-14T04:38:10.704Z,84.70
2018-01-14T04:40:38.260Z,84.80
2018-01-14T04:43:06.569Z,86.00
2018-01-14T04:45:34.108Z,85.30
2018-01-14T04:48:02.379Z,84.50
2018-01-14T04:50:29.889Z,84.50
2018-01-14T04:52:57.437Z,85.00
2018-01-14T04:55:24.930Z,84.40
2018-01-14T04:57:52.430Z,85.10
2018-01-14T05:00:19.972Z,85.10
2018-01-14T05:02:47.533Z,84.40
2018-01-14T05:05:15.195Z,83.90
2018-01-14T05:07:42.716Z,84.70
2018-01-14T05:10:10.226Z,85.40
2018-01-14T05:12:37.714Z,84.70
2018-01-14T05:15:05.189Z,85.40
2018-01-14T05:17:33.467Z,84.50
2018-01-14T05:20:01.785Z,84.30
2018-01-14T05:22:29.309Z,84.30
2018-01-14T05:24:56.770Z,84.40
2018-01-14T05:27:24.330Z,84.60
2018-01-14T05:29:51.796Z,85.90
2018-01-14T05:32:19.362Z,85.30
2018-01-14T05:34:47.112Z,84.10
2018-01-14T05:37:14.611Z,85.50
2018-01-14T05:39:42.986Z,84.90
2018-01-14T05:42:11.325Z,84.50
2018-01-14T05:44:40.227Z,84.80
2018-01-14T05:47:09.069Z,84.80
2018-01-14T05:49:37.474Z,84.90
2018-01-14T05:52:05.064Z,84.70
2018-01-14T05:54:32.684Z,84.90
2018-01-14T05:57:00.995Z,84.50
2018-01-14T05:59:28.739Z,84.40
2018-01-14T06:01:57.044Z,84.10
2018-01-14T06:04:24.643Z,84.00
2018-01-14T06:06:52.560Z,83.90
2018-01-14T06:09:20.959Z,84.10
2018-01-14T06:11:48.719Z,84.10
2018-01-14T06:14:16.206Z,85.50
2018-01-14T06:16:43.702Z,85.00
2018-01-14T06:19:11.459Z,85.30
2018-01-14T06:21:45.570Z,84.70
2018-01-14T06:24:13.295Z,85.80
2018-01-14T06:26:41.109Z,85.60
2018-01-14T06:29:09.099Z,86.30
2018-01-14T06:31:36.904Z,87.20
2018-01-14T06:34:05.149Z,86.80
2018-01-14T06:36:34.004Z,86.80
2018-01-14T06:39:04.190Z,87.10
2018-01-14T06:41:33.756Z,87.90
2018-01-14T06:44:04.598Z,87.20
2018-01-14T06:46:33.708Z,86.50
2018-01-14T06:49:02.569Z,85.90
2018-01-14T06:51:30.359Z,85.70
2018-01-14T06:53:57.902Z,86.60
2018-01-14T06:56:29.684Z,86.70
2018-01-14T06:58:58.857Z,86.70
2018-01-14T07:01:26.349Z,86.60
2018-01-14T07:03:54.849Z,86.60
2018-01-14T07:06:23.321Z,86.50
2018-01-14T07:08:51.975Z,86.20
2018-01-14T07:11:20.294Z,86.90
2018-01-14T07:13:49.157Z,86.90
2018-01-14T07:16:18.493Z,86.70
2018-01-14T07:18:46.195Z,87.10
2018-01-14T07:21:13.768Z,87.70
2018-01-14T07:23:42.693Z,88.10
2018-01-14T07:26:10.862Z,88.00
2018-01-14T07:28:38.415Z,87.90
2018-01-14T07:31:06.192Z,88.90
2018-01-14T07:33:35.537Z,90.10
2018-01-14T07:36:03.154Z,90.10
2018-01-14T07:38:32.344Z,89.80
2018-01-14T07:41:01.484Z,90.70
2018-01-14T07:43:29.098Z,91.00
2018-01-14T07:45:57.681Z,90.60
2018-01-14T07:48:25.407Z,90.50
2018-01-14T07:50:53.041Z,90.80
2018-01-14T07:53:21.387Z,90.80
2018-01-14T07:55:48.887Z,90.80
2018-01-14T07:58:17.197Z,90.90
2018-01-14T08:00:44.691Z,90.80
2018-01-14T08:03:12.355Z,90.80
2018-01-14T08:05:39.840Z,90.40
2018-01-14T08:08:07.502Z,90.40
2018-01-14T08:10:35.046Z,90.40
2018-01-14T08:13:02.632Z,90.20
2018-01-14T08:15:30.138Z,90.10
2018-01-14T08:17:57.663Z,90.10
2018-01-14T08:20:25.207Z,90.20
2018-01-14T08:22:52.837Z,89.20
2018-01-14T08:25:20.404Z,87.50
2018-01-14T08:27:47.905Z,87.20
2018-01-14T08:30:15.395Z,88.20
2018-01-14T08:32:42.991Z,88.30
2018-01-14T08:35:12.232Z,89.40
2018-01-14T08:37:39.722Z,89.30
2018-01-14T08:40:07.324Z,89.30
2018-01-14T08:42:34.917Z,88.90
2018-01-14T08:45:02.598Z,88.30
2018-01-14T08:47:30.122Z,88.40
2018-01-14T08:49:57.624Z,88.30
2018-01-14T08:52:25.100Z,88.20
2018-01-14T08:54:52.580Z,87.60
2018-01-14T08:57:20.864Z,87.30
2018-01-14T08:59:49.184Z,87.60
2018-01-14T09:02:16.672Z,87.60
2018-01-14T09:04:44.216Z,88.20
2018-01-14T09:07:11.862Z,87.90
2018-01-14T09:09:40.118Z,86.70
2018-01-14T09:12:08.389Z,86.30
2018-01-14T09:14:36.674Z,87.00
2018-01-14T09:17:04.340Z,86.90
2018-01-14T09:19:32.730Z,86.00
2018-01-14T09:22:01.021Z,87.10
2018-01-14T09:24:29.268Z,86.20
2018-01-14T09:26:56.770Z,86.10
2018-01-14T09:29:25.052Z,85.80
2018-01-14T09:31:53.330Z,86.00
2018-01-14T09:34:21.580Z,85.60
2018-01-14T09:36:49.114Z,85.60
2018-01-14T09:39:16.637Z,85.80
2018-01-14T09:41:44.880Z,86.30
2018-01-14T09:44:12.385Z,86.30
2018-01-14T09:46:40.779Z,86.30
2018-01-14T09:49:08.236Z,86.50
2018-01-14T09:51:35.760Z,86.60
2018-01-14T09:54:05.288Z,86.70
2018-01-14T09:56:33.595Z,86.40
2018-01-14T09:59:01.134Z,86.40
2018-01-14T10:01:29.978Z,85.80
2018-01-14T10:03:57.437Z,85.70
2018-01-14T10:06:25.028Z,85.90
2018-01-14T10:08:52.522Z,85.80
2018-01-14T10:11:21.200Z,85.70
2018-01-14T10:13:48.696Z,85.70
2018-01-14T10:16:16.224Z,86.80
2018-01-14T10:18:43.818Z,87.80
2018-01-14T10:21:11.623Z,87.50
2018-01-14T10:23:40.186Z,86.40
2018-01-14T10:26:08.812Z,86.30
2018-01-14T10:28:36.376Z,86.40
2018-01-14T10:31:03.921Z,86.90
2018-01-14T10:33:31.559Z,87.30
2018-01-14T10:35:59.053Z,87.30
2018-01-14T10:38:26.609Z,86.50
2018-01-14T10:40:54.125Z,86.70
2018-01-14T10:43:22.490Z,86.30
2018-01-14T10:45:50.099Z,86.30
2018-01-14T10:48:18.354Z,87.30
2018-01-14T10:50:45.931Z,87.20
2018-01-14T10:53:13.403Z,88.70
2018-01-14T10:55:41.636Z,88.20
2018-01-14T10:58:09.228Z,88.20
2018-01-14T11:00:42.439Z,88.30
2018-01-14T11:03:10.716Z,89.50
2018-01-14T11:05:39.103Z,88.50
2018-01-14T11:08:07.391Z,88.40
2018-01-14T11:10:35.801Z,89.60
2018-01-14T11:13:03.302Z,89.60
2018-01-14T11:15:30.841Z,89.70
2018-01-14T11:17:59.301Z,89.00
2018-01-14T11:20:26.884Z,89.40
2018-01-14T11:22:54.445Z,88.30
2018-01-14T11:25:22.140Z,87.90
2018-01-14T11:27:49.762Z,88.20
2018-01-14T11:30:17.531Z,87.60
2018-01-14T11:32:45.349Z,87.10
2018-01-14T11:35:12.942Z,88.00
2018-01-14T11:37:40.548Z,88.90
2018-01-14T11:40:08.070Z,88.80
2018-01-14T11:42:36.360Z,87.80
2018-01-14T11:45:04.939Z,88.50
2018-01-14T11:47:33.220Z,90.50
2018-01-14T11:50:01.487Z,89.20
2018-01-14T11:52:29.044Z,89.10
2018-01-14T11:54:56.536Z,90.10
2018-01-14T11:57:25.019Z,89.20
2018-01-14T11:59:53.364Z,89.60
2018-01-14T12:02:21.007Z,89.50
2018-01-14T12:04:48.558Z,88.60
2018-01-14T12:07:16.075Z,88.30
2018-01-14T12:09:44.470Z,89.30
2018-01-14T12:12:12.890Z,89.70
2018-01-14T12:14:41.164Z,89.00
2018-01-14T12:17:09.017Z,88.50
2018-01-14T12:19:37.493Z,87.90
2018-01-14T12:22:05.023Z,87.90
2018-01-14T12:24:32.696Z,87.60
2018-01-14T12:27:00.212Z,88.60
2018-01-14T12:29:27.745Z,87.40
2018-01-14T12:31:55.345Z,87.10
2018-01-14T12:34:37.727Z,86.70
2018-01-14T12:37:06.017Z,86.30
2018-01-14T12:39:34.295Z,86.90
2018-01-14T12:42:01.977Z,86.90
2018-01-14T12:44:30.672Z,87.20
2018-01-14T12:46:58.176Z,88.10
2018-01-14T12:49:25.694Z,87.20
2018-01-14T12:51:53.412Z,86.50
2018-01-14T12:54:20.936Z,87.10
2018-01-14T12:56:48.606Z,86.80
2018-01-14T12:59:16.892Z,87.90
2018-01-14T13:01:46.237Z,87.20
2018-01-14T13:04:13.852Z,87.60
2018-01-14T13:06:41.538Z,87.70
2018-01-14T13:09:09.114Z,87.40
2018-01-14T13:11:36.672Z,87.20
2018-01-14T13:14:04.317Z,87.50
2018-01-14T13:16:31.926Z,86.30
2018-01-14T13:19:00.942Z,85.80
2018-01-14T13:21:28.585Z,85.80
2018-01-14T13:23:56.139Z,86.00
2018-01-14T13:26:23.758Z,84.30
2018-01-14T13:28:52.018Z,83.60
2018-01-14T13:31:19.634Z,83.40
2018-01-14T13:33:47.151Z,85.60
2018-01-14T13:36:14.662Z,83.60
2018-01-14T13:38:42.175Z,85.00
2018-01-14T13:41:10.631Z,84.30
2018-01-14T13:43:38.432Z,84.30
2018-01-14T13:46:06.016Z,85.00
2018-01-14T13:48:34.336Z,83.70
2018-01-14T13:51:02.937Z,83.70
2018-01-14T13:53:30.443Z,83.30
2018-01-14T13:55:58.038Z,82.90
2018-01-14T13:58:25.746Z,84.00
2018-01-14T14:00:53.265Z,84.00
2018-01-14T14:03:20.787Z,83.60
2018-01-14T14:05:48.289Z,82.70
2018-01-14T14:08:16.016Z,83.60
2018-01-14T14:10:43.824Z,84.00
2018-01-14T14:13:11.547Z,83.20
2018-01-14T14:15:39.116Z,84.70
2018-01-14T14:18:06.661Z,84.40
2018-01-14T14:20:34.246Z,84.30
2018-01-14T14:23:01.778Z,83.80
2018-01-14T14:25:29.324Z,83.50
2018-01-14T14:27:56.895Z,83.50
2018-01-14T14:30:24.454Z,83.60
2018-01-14T14:32:52.117Z,83.00
2018-01-14T14:35:19.685Z,82.30
2018-01-14T14:37:47.169Z,80.90
2018-01-14T14:40:15.532Z,82.30
2018-01-14T14:42:43.086Z,78.20
2018-01-14T14:45:10.716Z,79.30
2018-01-14T14:47:38.177Z,80.60
2018-01-14T14:50:06.560Z,80.20
2018-01-14T14:52:34.106Z,80.00
2018-01-14T14:55:01.661Z,81.10
2018-01-14T14:57:29.254Z,77.00
2018-01-14T14:59:56.737Z,79.60
2018-01-14T15:02:24.976Z,81.00
2018-01-14T15:04:52.482Z,81.00
2018-01-14T15:07:20.774Z,79.60
2018-01-14T15:09:48.262Z,79.60
2018-01-14T15:12:15.746Z,79.00
2018-01-14T15:14:43.264Z,81.90
2018-01-14T15:17:10.817Z,82.00
2018-01-14T15:19:39.171Z,82.40
2018-01-14T15:22:06.644Z,82.40
2018-01-14T15:24:34.158Z,82.60
2018-01-14T15:27:01.675Z,82.70
2018-01-14T15:29:29.297Z,82.60
2018-01-14T15:31:56.947Z,82.20
2018-01-14T15:34:24.480Z,82.20
2018-01-14T15:36:52.177Z,82.20
2018-01-14T15:39:19.887Z,82.20
2018-01-14T15:41:47.650Z,82.40
2018-01-14T15:44:15.441Z,82.50
2018-01-14T15:46:43.190Z,83.30
2018-01-14T15:49:10.842Z,82.90
2018-01-14T15:51:38.453Z,82.20
2018-01-14T15:54:06.725Z,82.60
2018-01-14T15:56:34.215Z,82.60
2018-01-14T15:59:02.027Z,82.90
2018-01-14T16:01:29.614Z,83.00
2018-01-14T16:03:57.105Z,83.00
2018-01-14T16:06:24.630Z,83.20
2018-01-14T16:08:52.218Z,83.60
2018-01-14T16:11:20.928Z,83.60
2018-01-14T16:13:49.308Z,83.60
2018-01-14T16:16:17.580Z,83.80
2018-01-14T16:18:45.867Z,84.10
2018-01-14T16:21:13.338Z,83.90
2018-01-14T16:23:41.596Z,85.00
2018-01-14T16:26:09.809Z,85.10
2018-01-14T16:28:37.348Z,85.00
2018-01-14T16:31:05.853Z,84.60
2018-01-14T16:33:34.099Z,84.40
2018-01-14T16:36:01.557Z,84.50
2018-01-14T16:38:29.920Z,84.50
2018-01-14T16:40:57.456Z,84.40
2018-01-14T16:43:25.028Z,84.70
2018-01-14T16:45:52.773Z,84.70
2018-01-14T16:48:20.289Z,84.80
2018-01-14T16:50:47.806Z,85.30
2018-01-14T16:53:16.058Z,85.10
2018-01-14T16:55:43.671Z,85.00
2018-01-14T16:58:11.185Z,85.40
2018-01-14T17:00:38.779Z,85.70
2018-01-14T17:03:07.078Z,85.50
2018-01-14T17:05:34.584Z,85.50
2018-01-14T17:08:02.087Z,85.30
2018-01-14T17:10:29.679Z,85.10
2018-01-14T17:12:57.205Z,84.70
2018-01-14T17:15:24.888Z,84.50
2018-01-14T17:17:52.453Z,84.50
2018-01-14T17:20:20.830Z,84.40
2018-01-14T17:22:48.557Z,84.30
2018-01-14T17:25:16.224Z,84.60
2018-01-14T17:27:43.762Z,84.60
2018-01-14T17:30:11.328Z,84.60
2018-01-14T17:32:39.034Z,84.30
2018-01-14T17:35:06.592Z,84.60
2018-01-14T17:37:34.330Z,85.00
2018-01-14T17:40:01.841Z,85.40
2018-01-14T17:42:29.341Z,85.80
2018-01-14T17:44:57.107Z,85.90
2018-01-14T17:47:24.642Z,85.70
2018-01-14T17:49:53.251Z,85.10
2018-01-14T17:52:20.832Z,85.10
2018-01-14T17:54:48.555Z,84.70
2018-01-14T17:57:17.346Z,84.70
2018-01-14T17:59:45.161Z,84.10
2018-01-14T18:02:12.660Z,84.80
2018-01-14T18:04:40.207Z,84.70
2018-01-14T18:07:07.967Z,84.80
2018-01-14T18:09:35.429Z,85.00
2018-01-14T18:12:02.946Z,85.10
2018-01-14T18:14:31.290Z,85.40
2018-01-14T18:17:00.017Z,85.40
2018-01-14T18:19:28.404Z,85.50
2018-01-14T18:21:56.945Z,85.50
2018-01-14T18:24:24.716Z,85.50
2018-01-14T18:26:52.304Z,85.40
2018-01-14T18:29:20.185Z,85.20
2018-01-14T18:31:48.830Z,85.50
2018-01-14T18:34:16.681Z,85.30
2018-01-14T18:36:44.454Z,85.30
2018-01-14T18:39:12.254Z,85.30
2018-01-14T18:41:39.907Z,85.40
2018-01-14T18:44:07.465Z,85.50
2018-01-14T18:46:35.076Z,85.20
2018-01-14T18:49:02.613Z,85.30
2018-01-14T18:51:32.487Z,85.50
2018-01-14T18:54:00.966Z,85.60
2018-01-14T18:56:29.422Z,85.60
2018-01-14T18:58:57.138Z,85.60
2018-01-14T19:01:24.720Z,85.50
2018-01-14T19:03:52.245Z,85.60
2018-01-14T19:06:19.922Z,86.00
2018-01-14T19:08:49.213Z,85.50
2018-01-14T19:11:17.649Z,85.30
2018-01-14T19:13:45.235Z,85.30
2018-01-14T19:16:12.751Z,85.20
2018-01-14T19:18:40.994Z,85.30
2018-01-14T19:21:08.488Z,85.30
2018-01-14T19:23:36.015Z,85.30
2018-01-14T19:26:03.573Z,85.20
2018-01-14T19:28:31.041Z,86.00
2018-01-14T19:30:58.643Z,86.40
2018-01-14T19:33:26.173Z,86.50
2018-01-14T19:35:53.820Z,86.10
2018-01-14T19:38:21.523Z,85.80
2018-01-14T19:40:49.871Z,85.70
2018-01-14T19:43:17.419Z,85.70
2018-01-14T19:45:45.051Z,86.20
2018-01-14T19:48:12.640Z,86.30
2018-01-14T19:50:40.200Z,86.20
2018-01-14T19:53:07.811Z,86.00
2018-01-14T19:55:35.534Z,86.50
2018-01-14T19:58:03.266Z,86.90
2018-01-14T20:00:30.803Z,86.60
2018-01-14T20:02:58.551Z,86.90
2018-01-14T20:05:26.135Z,87.10
2018-01-14T20:07:55.112Z,87.60
2018-01-14T20:10:22.793Z,86.70
2018-01-14T20:12:50.514Z,85.90
2018-01-14T20:15:18.905Z,85.10
2018-01-14T20:17:47.143Z,85.50
2018-01-14T20:20:15.448Z,85.40
2018-01-14T20:22:43.246Z,85.40
2018-01-14T20:25:10.898Z,85.60
2018-01-14T20:27:39.418Z,85.40
2018-01-14T20:30:07.138Z,85.20
2018-01-14T20:32:34.698Z,85.30
2018-01-14T20:35:03.038Z,86.60
2018-01-14T20:37:32.604Z,86.50
2018-01-14T20:40:01.074Z,86.40
2018-01-14T20:42:30.177Z,86.40
2018-01-14T20:44:57.818Z,85.50
2018-01-14T20:47:25.490Z,86.40
2018-01-14T20:49:53.161Z,86.90
2018-01-14T20:52:20.718Z,86.70
2018-01-14T20:54:48.320Z,87.10
2018-01-14T20:57:16.721Z,86.40
2018-01-14T20:59:44.406Z,86.40
2018-01-14T21:02:12.092Z,86.30
2018-01-14T21:04:39.630Z,86.10
2018-01-14T21:07:07.125Z,85.70
2018-01-14T21:09:34.688Z,85.60
2018-01-14T21:12:02.195Z,85.50
2018-01-14T21:14:30.538Z,85.20
2018-01-14T21:16:58.104Z,85.20
2018-01-14T21:19:25.722Z,85.20
2018-01-14T21:21:53.296Z,85.40
2018-01-14T21:24:20.907Z,85.50
2018-01-14T21:26:48.429Z,86.10
2018-01-14T21:29:15.989Z,85.70
2018-01-14T21:31:43.609Z,86.40
2018-01-14T21:34:11.230Z,85.70
2018-01-14T21:36:38.851Z,86.00
2018-01-14T21:39:07.129Z,85.10
2018-01-14T21:41:34.738Z,84.70
2018-01-14T21:44:02.493Z,85.60
2018-01-14T21:46:29.948Z,85.40
2018-01-14T21:48:57.518Z,85.20
2018-01-14T21:51:25.872Z,85.00
2018-01-14T21:53:54.205Z,84.70
2018-01-14T21:56:21.810Z,84.70
2018-01-14T21:58:49.416Z,84.30
2018-01-14T22:01:16.989Z,84.10
2018-01-14T22:03:44.687Z,83.90
2018-01-14T22:06:12.168Z,84.20
2018-01-14T22:08:39.705Z,84.00
2018-01-14T22:11:07.225Z,84.10
2018-01-14T22:13:35.723Z,84.70
2018-01-14T22:16:04.102Z,84.90
2018-01-14T22:18:31.648Z,84.90
2018-01-14T22:20:59.175Z,85.00
2018-01-14T22:23:26.839Z,85.00
2018-01-14T22:25:54.453Z,84.30
2018-01-14T22:28:22.678Z,85.20
2018-01-14T22:30:50.331Z,85.20
2018-01-14T22:33:17.900Z,84.60
2018-01-14T22:35:45.560Z,84.60
2018-01-14T22:38:13.125Z,84.30
2018-01-14T22:40:42.065Z,84.20
2018-01-14T22:43:09.614Z,83.80
2018-01-14T22:45:37.165Z,83.90
2018-01-14T22:48:04.999Z,83.90
2018-01-14T22:50:33.468Z,83.90
2018-01-14T22:53:01.049Z,83.90
2018-01-14T22:55:29.356Z,84.30
2018-01-14T22:57:56.824Z,84.30
2018-01-14T23:00:25.735Z,84.40
2018-01-14T23:02:53.641Z,84.40
2018-01-14T23:05:21.451Z,84.20
2018-01-14T23:07:49.837Z,84.00
2018-01-14T23:10:19.377Z,83.80
2018-01-14T23:12:46.886Z,83.80
2018-01-14T23:15:14.409Z,83.60
2018-01-14T23:17:41.907Z,83.70
2018-01-14T23:20:10.404Z,83.70
2018-01-14T23:22:38.726Z,83.70
2018-01-14T23:25:06.241Z,83.70
2018-01-14T23:27:33.735Z,84.00
2018-01-14T23:30:02.012Z,84.40
2018-01-14T23:32:30.365Z,85.00
2018-01-14T23:34:57.876Z,85.00
2018-01-14T23:37:25.368Z,84.70
2018-01-14T23:39:52.924Z,84.30
2018-01-14T23:42:20.481Z,84.00
2018-01-14T23:44:48.039Z,83.80
2018-01-14T23:47:15.554Z,83.60
2018-01-14T23:49:43.060Z,83.50
2018-01-14T23:52:10.710Z,83.60
2018-01-14T23:54:39.025Z,83.80
2018-01-14T23:57:06.655Z,83.80
2018-01-14T23:59:34.873Z,84.60
